sensor_id;sensor_type;location;lat;lon;timestamp;temperature;humidity
71237;DHT22;58984;51.960;5.582;2024-02-23T00:01:32;8.60;99.90
71237;DHT22;58984;51.960;5.582;2024-02-23T00:03:57;8.60;99.90
71237;DHT22;58984;51.960;5.582;2024-02-23T00:06:23;8.50;99.90
71237;DHT22;58984;51.960;5.582;2024-02-23T00:08:56;8.50;99.90
71237;DHT22;58984;51.960;5.582;2024-02-23T00:11:21;8.50;99.90
71237;DHT22;58984;51.960;5.582;2024-02-23T00:13:47;8.50;99.90
71237;DHT22;58984;51.960;5.582;2024-02-23T00:16:13;8.50;99.90
71237;DHT22;58984;51.960;5.582;2024-02-23T00:18:38;8.50;99.90
71237;DHT22;58984;51.960;5.582;2024-02-23T00:21:04;8.50;99.90
71237;DHT22;58984;51.960;5.582;2024-02-23T00:23:30;8.40;99.90
71237;DHT22;58984;51.960;5.582;2024-02-23T00:25:55;8.40;99.90
71237;DHT22;58984;51.960;5.582;2024-02-23T00:28:21;8.40;99.90
71237;DHT22;58984;51.960;5.582;2024-02-23T00:30:47;8.40;99.90
71237;DHT22;58984;51.960;5.582;2024-02-23T00:33:13;8.40;99.90
71237;DHT22;58984;51.960;5.582;2024-02-23T00:35:38;8.40;99.90
71237;DHT22;58984;51.960;5.582;2024-02-23T00:38:04;8.40;99.90
71237;DHT22;58984;51.960;5.582;2024-02-23T00:40:30;8.40;99.90
71237;DHT22;58984;51.960;5.582;2024-02-23T00:42:56;8.40;99.90
71237;DHT22;58984;51.960;5.582;2024-02-23T00:45:21;8.40;99.90
71237;DHT22;58984;51.960;5.582;2024-02-23T00:47:47;8.40;99.90
71237;DHT22;58984;51.960;5.582;2024-02-23T00:50:13;8.40;99.90
71237;DHT22;58984;51.960;5.582;2024-02-23T00:52:39;8.30;99.90
71237;DHT22;58984;51.960;5.582;2024-02-23T00:55:06;8.30;99.90
71237;DHT22;58984;51.960;5.582;2024-02-23T00:57:34;8.30;99.90
71237;DHT22;58984;51.960;5.582;2024-02-23T01:00:01;8.30;99.90
71237;DHT22;58984;51.960;5.582;2024-02-23T01:02:28;8.30;99.90
71237;DHT22;58984;51.960;5.582;2024-02-23T01:04:55;8.20;99.90
71237;DHT22;58984;51.960;5.582;2024-02-23T01:07:22;8.20;99.90
71237;DHT22;58984;51.960;5.582;2024-02-23T01:09:48;8.20;99.90
71237;DHT22;58984;51.960;5.582;2024-02-23T01:12:14;8.20;99.90
71237;DHT22;58984;51.960;5.582;2024-02-23T01:14:39;8.20;99.90
71237;DHT22;58984;51.960;5.582;2024-02-23T01:17:05;8.10;99.90
71237;DHT22;58984;51.960;5.582;2024-02-23T01:19:31;8.10;99.90
71237;DHT22;58984;51.960;5.582;2024-02-23T01:21:56;8.10;99.90
71237;DHT22;58984;51.960;5.582;2024-02-23T01:24:27;8.10;99.90
71237;DHT22;58984;51.960;5.582;2024-02-23T01:26:55;8.10;99.90
71237;DHT22;58984;51.960;5.582;2024-02-23T01:29:21;8.10;99.90
71237;DHT22;58984;51.960;5.582;2024-02-23T01:31:48;8.00;99.90
71237;DHT22;58984;51.960;5.582;2024-02-23T01:34:14;8.00;99.90
71237;DHT22;58984;51.960;5.582;2024-02-23T01:36:39;8.00;99.90
71237;DHT22;58984;51.960;5.582;2024-02-23T01:39:05;8.00;99.90
71237;DHT22;58984;51.960;5.582;2024-02-23T01:41:31;8.00;99.90
71237;DHT22;58984;51.960;5.582;2024-02-23T01:43:57;8.00;99.90
71237;DHT22;58984;51.960;5.582;2024-02-23T01:46:23;8.00;99.90
71237;DHT22;58984;51.960;5.582;2024-02-23T01:48:49;7.90;99.90
71237;DHT22;58984;51.960;5.582;2024-02-23T01:51:14;7.90;99.90
71237;DHT22;58984;51.960;5.582;2024-02-23T01:53:40;7.90;99.90
71237;DHT22;58984;51.960;5.582;2024-02-23T01:56:06;7.90;99.90
71237;DHT22;58984;51.960;5.582;2024-02-23T01:58:34;7.90;99.90
71237;DHT22;58984;51.960;5.582;2024-02-23T02:01:00;7.90;99.90
71237;DHT22;58984;51.960;5.582;2024-02-23T02:03:26;7.90;99.90
71237;DHT22;58984;51.960;5.582;2024-02-23T02:05:53;7.80;99.90
71237;DHT22;58984;51.960;5.582;2024-02-23T02:08:20;7.80;99.90
71237;DHT22;58984;51.960;5.582;2024-02-23T02:10:46;7.80;99.90
71237;DHT22;58984;51.960;5.582;2024-02-23T02:13:12;7.80;99.90
71237;DHT22;58984;51.960;5.582;2024-02-23T02:15:38;7.80;99.90
71237;DHT22;58984;51.960;5.582;2024-02-23T02:18:04;7.80;99.90
71237;DHT22;58984;51.960;5.582;2024-02-23T02:20:33;7.80;99.90
71237;DHT22;58984;51.960;5.582;2024-02-23T02:22:59;7.70;99.90
71237;DHT22;58984;51.960;5.582;2024-02-23T02:25:24;7.70;99.90
71237;DHT22;58984;51.960;5.582;2024-02-23T02:27:50;7.70;99.90
71237;DHT22;58984;51.960;5.582;2024-02-23T02:30:16;7.70;99.90
71237;DHT22;58984;51.960;5.582;2024-02-23T02:32:42;7.70;99.90
71237;DHT22;58984;51.960;5.582;2024-02-23T02:35:09;7.70;99.90
71237;DHT22;58984;51.960;5.582;2024-02-23T02:37:35;7.70;99.90
71237;DHT22;58984;51.960;5.582;2024-02-23T02:40:02;7.70;99.90
71237;DHT22;58984;51.960;5.582;2024-02-23T02:42:28;7.70;99.90
71237;DHT22;58984;51.960;5.582;2024-02-23T02:44:54;7.70;99.90
71237;DHT22;58984;51.960;5.582;2024-02-23T02:47:20;7.60;99.90
71237;DHT22;58984;51.960;5.582;2024-02-23T02:49:45;7.60;99.90
71237;DHT22;58984;51.960;5.582;2024-02-23T02:52:11;7.60;99.90
71237;DHT22;58984;51.960;5.582;2024-02-23T02:54:36;7.60;99.90
71237;DHT22;58984;51.960;5.582;2024-02-23T02:57:02;7.60;99.90
71237;DHT22;58984;51.960;5.582;2024-02-23T02:59:28;7.60;99.90
71237;DHT22;58984;51.960;5.582;2024-02-23T03:01:53;7.60;99.90
71237;DHT22;58984;51.960;5.582;2024-02-23T03:04:19;7.60;99.90
71237;DHT22;58984;51.960;5.582;2024-02-23T03:06:45;7.50;99.90
71237;DHT22;58984;51.960;5.582;2024-02-23T03:09:10;7.60;99.90
71237;DHT22;58984;51.960;5.582;2024-02-23T03:11:36;7.50;99.90
71237;DHT22;58984;51.960;5.582;2024-02-23T03:14:03;7.50;99.90
71237;DHT22;58984;51.960;5.582;2024-02-23T03:16:31;7.50;99.90
71237;DHT22;58984;51.960;5.582;2024-02-23T03:18:57;7.50;99.90
71237;DHT22;58984;51.960;5.582;2024-02-23T03:21:22;7.50;99.90
71237;DHT22;58984;51.960;5.582;2024-02-23T03:23:48;7.50;99.90
71237;DHT22;58984;51.960;5.582;2024-02-23T03:26:13;7.50;99.90
71237;DHT22;58984;51.960;5.582;2024-02-23T03:28:42;7.50;99.90
71237;DHT22;58984;51.960;5.582;2024-02-23T03:31:08;7.40;99.90
71237;DHT22;58984;51.960;5.582;2024-02-23T03:33:33;7.50;99.90
71237;DHT22;58984;51.960;5.582;2024-02-23T03:35:59;7.40;99.90
71237;DHT22;58984;51.960;5.582;2024-02-23T03:38:25;7.40;99.90
71237;DHT22;58984;51.960;5.582;2024-02-23T03:40:50;7.40;99.90
71237;DHT22;58984;51.960;5.582;2024-02-23T03:43:16;7.40;99.90
71237;DHT22;58984;51.960;5.582;2024-02-23T03:45:42;7.40;99.90
71237;DHT22;58984;51.960;5.582;2024-02-23T03:48:07;7.40;99.90
71237;DHT22;58984;51.960;5.582;2024-02-23T03:50:33;7.40;99.90
71237;DHT22;58984;51.960;5.582;2024-02-23T03:52:59;7.40;99.90
71237;DHT22;58984;51.960;5.582;2024-02-23T03:55:24;7.40;99.90
71237;DHT22;58984;51.960;5.582;2024-02-23T03:57:50;7.40;99.90
71237;DHT22;58984;51.960;5.582;2024-02-23T04:00:16;7.30;99.90
71237;DHT22;58984;51.960;5.582;2024-02-23T04:02:42;7.30;99.90
71237;DHT22;58984;51.960;5.582;2024-02-23T04:05:08;7.30;99.90
71237;DHT22;58984;51.960;5.582;2024-02-23T04:07:33;7.30;99.90
71237;DHT22;58984;51.960;5.582;2024-02-23T04:09:59;7.30;99.90
71237;DHT22;58984;51.960;5.582;2024-02-23T04:12:25;7.30;99.90
71237;DHT22;58984;51.960;5.582;2024-02-23T04:14:50;7.30;99.90
71237;DHT22;58984;51.960;5.582;2024-02-23T04:17:16;7.30;99.90
71237;DHT22;58984;51.960;5.582;2024-02-23T04:19:42;7.30;99.90
71237;DHT22;58984;51.960;5.582;2024-02-23T04:22:08;7.30;99.90
71237;DHT22;58984;51.960;5.582;2024-02-23T04:24:37;7.30;99.90
71237;DHT22;58984;51.960;5.582;2024-02-23T04:27:07;7.20;99.90
71237;DHT22;58984;51.960;5.582;2024-02-23T04:29:33;7.30;99.90
71237;DHT22;58984;51.960;5.582;2024-02-23T04:32:00;7.20;99.90
71237;DHT22;58984;51.960;5.582;2024-02-23T04:34:27;7.30;99.90
71237;DHT22;58984;51.960;5.582;2024-02-23T04:36:53;7.20;99.90
71237;DHT22;58984;51.960;5.582;2024-02-23T04:39:18;7.20;99.90
71237;DHT22;58984;51.960;5.582;2024-02-23T04:41:44;7.20;99.90
71237;DHT22;58984;51.960;5.582;2024-02-23T04:44:09;7.20;99.90
71237;DHT22;58984;51.960;5.582;2024-02-23T04:46:35;7.20;99.90
71237;DHT22;58984;51.960;5.582;2024-02-23T04:49:01;7.20;99.90
71237;DHT22;58984;51.960;5.582;2024-02-23T04:51:27;7.20;99.90
71237;DHT22;58984;51.960;5.582;2024-02-23T04:53:53;7.20;99.90
71237;DHT22;58984;51.960;5.582;2024-02-23T04:56:19;7.20;99.90
71237;DHT22;58984;51.960;5.582;2024-02-23T04:58:45;7.20;99.90
71237;DHT22;58984;51.960;5.582;2024-02-23T05:01:10;7.20;99.90
71237;DHT22;58984;51.960;5.582;2024-02-23T05:03:36;7.20;99.90
71237;DHT22;58984;51.960;5.582;2024-02-23T05:06:03;7.20;99.90
71237;DHT22;58984;51.960;5.582;2024-02-23T05:08:29;7.20;99.90
71237;DHT22;58984;51.960;5.582;2024-02-23T05:10:56;7.20;99.90
71237;DHT22;58984;51.960;5.582;2024-02-23T05:13:22;7.20;99.90
71237;DHT22;58984;51.960;5.582;2024-02-23T05:15:48;7.20;99.90
71237;DHT22;58984;51.960;5.582;2024-02-23T05:18:14;7.20;99.90
71237;DHT22;58984;51.960;5.582;2024-02-23T05:20:39;7.20;99.90
71237;DHT22;58984;51.960;5.582;2024-02-23T05:23:05;7.20;99.90
71237;DHT22;58984;51.960;5.582;2024-02-23T05:25:31;7.20;99.90
71237;DHT22;58984;51.960;5.582;2024-02-23T05:27:56;7.20;99.90
71237;DHT22;58984;51.960;5.582;2024-02-23T05:30:22;7.20;99.90
71237;DHT22;58984;51.960;5.582;2024-02-23T05:32:48;7.20;99.90
71237;DHT22;58984;51.960;5.582;2024-02-23T05:35:14;7.20;99.90
71237;DHT22;58984;51.960;5.582;2024-02-23T05:37:41;7.10;99.90
71237;DHT22;58984;51.960;5.582;2024-02-23T05:40:07;7.20;99.90
71237;DHT22;58984;51.960;5.582;2024-02-23T05:42:39;7.20;99.90
71237;DHT22;58984;51.960;5.582;2024-02-23T05:45:06;7.10;99.90
71237;DHT22;58984;51.960;5.582;2024-02-23T05:47:37;7.10;99.90
71237;DHT22;58984;51.960;5.582;2024-02-23T05:50:04;7.10;99.90
71237;DHT22;58984;51.960;5.582;2024-02-23T05:52:33;7.10;99.90
71237;DHT22;58984;51.960;5.582;2024-02-23T05:55:00;7.10;99.90
71237;DHT22;58984;51.960;5.582;2024-02-23T05:57:26;7.20;99.90
71237;DHT22;58984;51.960;5.582;2024-02-23T05:59:53;7.20;99.90
71237;DHT22;58984;51.960;5.582;2024-02-23T06:02:18;7.10;99.90
71237;DHT22;58984;51.960;5.582;2024-02-23T06:04:44;7.10;99.90
71237;DHT22;58984;51.960;5.582;2024-02-23T06:07:10;7.10;99.90
71237;DHT22;58984;51.960;5.582;2024-02-23T06:09:36;7.10;99.90
71237;DHT22;58984;51.960;5.582;2024-02-23T06:12:02;7.10;99.90
71237;DHT22;58984;51.960;5.582;2024-02-23T06:14:28;7.10;99.90
71237;DHT22;58984;51.960;5.582;2024-02-23T06:16:54;7.10;99.90
71237;DHT22;58984;51.960;5.582;2024-02-23T06:19:19;7.10;99.90
71237;DHT22;58984;51.960;5.582;2024-02-23T06:21:49;7.10;99.90
71237;DHT22;58984;51.960;5.582;2024-02-23T06:24:16;7.10;99.90
71237;DHT22;58984;51.960;5.582;2024-02-23T06:26:43;7.10;99.90
71237;DHT22;58984;51.960;5.582;2024-02-23T06:29:09;7.10;99.90
71237;DHT22;58984;51.960;5.582;2024-02-23T06:31:37;7.10;99.90
71237;DHT22;58984;51.960;5.582;2024-02-23T06:34:04;7.10;99.90
71237;DHT22;58984;51.960;5.582;2024-02-23T06:36:29;7.10;99.90
71237;DHT22;58984;51.960;5.582;2024-02-23T06:38:55;7.10;99.90
71237;DHT22;58984;51.960;5.582;2024-02-23T06:41:20;7.10;99.90
71237;DHT22;58984;51.960;5.582;2024-02-23T06:43:46;7.10;99.90
71237;DHT22;58984;51.960;5.582;2024-02-23T06:46:12;7.10;99.90
71237;DHT22;58984;51.960;5.582;2024-02-23T06:48:38;7.10;99.90
71237;DHT22;58984;51.960;5.582;2024-02-23T06:51:04;7.10;99.90
71237;DHT22;58984;51.960;5.582;2024-02-23T06:53:30;7.10;99.90
71237;DHT22;58984;51.960;5.582;2024-02-23T06:55:56;7.10;99.90
71237;DHT22;58984;51.960;5.582;2024-02-23T06:58:21;7.10;99.90
71237;DHT22;58984;51.960;5.582;2024-02-23T07:00:47;7.10;99.90
71237;DHT22;58984;51.960;5.582;2024-02-23T07:03:13;7.10;99.90
71237;DHT22;58984;51.960;5.582;2024-02-23T07:05:40;7.10;99.90
71237;DHT22;58984;51.960;5.582;2024-02-23T07:08:08;7.10;99.90
71237;DHT22;58984;51.960;5.582;2024-02-23T07:10:33;7.10;99.90
71237;DHT22;58984;51.960;5.582;2024-02-23T07:12:59;7.10;99.90
71237;DHT22;58984;51.960;5.582;2024-02-23T07:15:25;7.10;99.90
71237;DHT22;58984;51.960;5.582;2024-02-23T07:17:52;7.10;99.90
71237;DHT22;58984;51.960;5.582;2024-02-23T07:20:17;7.10;99.90
71237;DHT22;58984;51.960;5.582;2024-02-23T07:22:46;7.10;99.90
71237;DHT22;58984;51.960;5.582;2024-02-23T07:25:16;7.00;99.90
71237;DHT22;58984;51.960;5.582;2024-02-23T07:27:42;7.10;99.90
71237;DHT22;58984;51.960;5.582;2024-02-23T07:30:08;7.00;99.90
71237;DHT22;58984;51.960;5.582;2024-02-23T07:32:33;7.10;99.90
71237;DHT22;58984;51.960;5.582;2024-02-23T07:34:59;7.10;99.90
71237;DHT22;58984;51.960;5.582;2024-02-23T07:37:26;7.10;99.90
71237;DHT22;58984;51.960;5.582;2024-02-23T07:39:52;7.10;99.90
71237;DHT22;58984;51.960;5.582;2024-02-23T07:42:18;7.10;99.90
71237;DHT22;58984;51.960;5.582;2024-02-23T07:44:44;7.00;99.90
71237;DHT22;58984;51.960;5.582;2024-02-23T07:47:11;7.10;99.90
71237;DHT22;58984;51.960;5.582;2024-02-23T07:49:37;7.00;99.90
71237;DHT22;58984;51.960;5.582;2024-02-23T07:52:03;7.00;99.90
71237;DHT22;58984;51.960;5.582;2024-02-23T07:54:29;7.10;99.90
71237;DHT22;58984;51.960;5.582;2024-02-23T07:56:54;7.10;99.90
71237;DHT22;58984;51.960;5.582;2024-02-23T07:59:20;7.00;99.90
71237;DHT22;58984;51.960;5.582;2024-02-23T08:01:46;7.10;99.90
71237;DHT22;58984;51.960;5.582;2024-02-23T08:04:12;7.10;99.90
71237;DHT22;58984;51.960;5.582;2024-02-23T08:06:39;7.10;99.90
71237;DHT22;58984;51.960;5.582;2024-02-23T08:09:05;7.10;99.90
71237;DHT22;58984;51.960;5.582;2024-02-23T08:11:30;7.10;99.90
71237;DHT22;58984;51.960;5.582;2024-02-23T08:13:56;7.10;99.90
71237;DHT22;58984;51.960;5.582;2024-02-23T08:16:21;7.10;99.90
71237;DHT22;58984;51.960;5.582;2024-02-23T08:18:47;7.10;99.90
71237;DHT22;58984;51.960;5.582;2024-02-23T08:21:13;7.10;99.90
71237;DHT22;58984;51.960;5.582;2024-02-23T08:23:38;7.10;99.90
71237;DHT22;58984;51.960;5.582;2024-02-23T08:26:04;7.00;99.90
71237;DHT22;58984;51.960;5.582;2024-02-23T08:28:30;7.10;99.90
71237;DHT22;58984;51.960;5.582;2024-02-23T08:30:55;7.10;99.90
71237;DHT22;58984;51.960;5.582;2024-02-23T08:33:21;7.10;99.90
71237;DHT22;58984;51.960;5.582;2024-02-23T08:35:47;7.10;99.90
71237;DHT22;58984;51.960;5.582;2024-02-23T08:38:14;7.10;99.90
71237;DHT22;58984;51.960;5.582;2024-02-23T08:40:39;7.10;99.90
71237;DHT22;58984;51.960;5.582;2024-02-23T08:43:05;7.10;99.90
71237;DHT22;58984;51.960;5.582;2024-02-23T08:45:31;7.10;99.90
71237;DHT22;58984;51.960;5.582;2024-02-23T08:47:56;7.10;99.90
71237;DHT22;58984;51.960;5.582;2024-02-23T08:50:22;7.10;99.90
71237;DHT22;58984;51.960;5.582;2024-02-23T08:52:48;7.10;99.90
71237;DHT22;58984;51.960;5.582;2024-02-23T08:55:13;7.10;99.90
71237;DHT22;58984;51.960;5.582;2024-02-23T08:57:39;7.10;99.90
71237;DHT22;58984;51.960;5.582;2024-02-23T09:00:05;7.10;99.90
71237;DHT22;58984;51.960;5.582;2024-02-23T09:02:31;7.10;99.90
71237;DHT22;58984;51.960;5.582;2024-02-23T09:05:01;7.10;99.90
71237;DHT22;58984;51.960;5.582;2024-02-23T09:07:26;7.10;99.90
71237;DHT22;58984;51.960;5.582;2024-02-23T09:09:52;7.10;99.90
71237;DHT22;58984;51.960;5.582;2024-02-23T09:12:19;7.10;99.90
71237;DHT22;58984;51.960;5.582;2024-02-23T09:14:44;7.10;99.90
71237;DHT22;58984;51.960;5.582;2024-02-23T09:17:10;7.10;99.90
71237;DHT22;58984;51.960;5.582;2024-02-23T09:19:37;7.10;99.90
71237;DHT22;58984;51.960;5.582;2024-02-23T09:22:02;7.10;99.90
71237;DHT22;58984;51.960;5.582;2024-02-23T09:24:28;7.10;99.90
71237;DHT22;58984;51.960;5.582;2024-02-23T09:26:54;7.10;99.90
71237;DHT22;58984;51.960;5.582;2024-02-23T09:29:20;7.10;99.90
71237;DHT22;58984;51.960;5.582;2024-02-23T09:31:47;7.10;99.90
71237;DHT22;58984;51.960;5.582;2024-02-23T09:34:13;7.10;99.90
71237;DHT22;58984;51.960;5.582;2024-02-23T09:36:39;7.20;99.90
71237;DHT22;58984;51.960;5.582;2024-02-23T09:39:04;7.20;99.90
71237;DHT22;58984;51.960;5.582;2024-02-23T09:41:30;7.20;99.90
71237;DHT22;58984;51.960;5.582;2024-02-23T09:44:00;7.20;99.90
71237;DHT22;58984;51.960;5.582;2024-02-23T09:46:26;7.10;99.90
71237;DHT22;58984;51.960;5.582;2024-02-23T09:48:53;7.20;99.90
71237;DHT22;58984;51.960;5.582;2024-02-23T09:51:21;7.20;99.90
71237;DHT22;58984;51.960;5.582;2024-02-23T09:53:49;7.20;99.90
71237;DHT22;58984;51.960;5.582;2024-02-23T09:56:17;7.20;99.90
71237;DHT22;58984;51.960;5.582;2024-02-23T09:58:45;7.20;99.90
71237;DHT22;58984;51.960;5.582;2024-02-23T10:01:12;7.20;99.90
71237;DHT22;58984;51.960;5.582;2024-02-23T10:03:39;7.20;99.90
71237;DHT22;58984;51.960;5.582;2024-02-23T10:06:05;7.20;99.90
71237;DHT22;58984;51.960;5.582;2024-02-23T10:08:31;7.20;99.90
71237;DHT22;58984;51.960;5.582;2024-02-23T10:10:56;7.20;99.90
71237;DHT22;58984;51.960;5.582;2024-02-23T10:13:23;7.20;99.90
71237;DHT22;58984;51.960;5.582;2024-02-23T10:15:52;7.20;99.90
71237;DHT22;58984;51.960;5.582;2024-02-23T10:18:19;7.20;99.90
71237;DHT22;58984;51.960;5.582;2024-02-23T10:20:45;7.20;99.90
71237;DHT22;58984;51.960;5.582;2024-02-23T10:23:11;7.20;99.90
71237;DHT22;58984;51.960;5.582;2024-02-23T10:25:37;7.20;99.90
71237;DHT22;58984;51.960;5.582;2024-02-23T10:28:06;7.20;99.90
71237;DHT22;58984;51.960;5.582;2024-02-23T10:30:32;7.20;99.90
71237;DHT22;58984;51.960;5.582;2024-02-23T10:32:59;7.20;99.90
71237;DHT22;58984;51.960;5.582;2024-02-23T10:35:25;7.20;99.90
71237;DHT22;58984;51.960;5.582;2024-02-23T10:37:53;7.20;99.90
71237;DHT22;58984;51.960;5.582;2024-02-23T10:40:20;7.20;99.90
71237;DHT22;58984;51.960;5.582;2024-02-23T10:42:48;7.20;99.90
71237;DHT22;58984;51.960;5.582;2024-02-23T10:45:19;7.20;99.90
71237;DHT22;58984;51.960;5.582;2024-02-23T10:47:47;7.20;99.90
71237;DHT22;58984;51.960;5.582;2024-02-23T10:50:14;7.30;99.90
71237;DHT22;58984;51.960;5.582;2024-02-23T10:52:43;7.20;99.90
71237;DHT22;58984;51.960;5.582;2024-02-23T10:55:09;7.30;99.90
71237;DHT22;58984;51.960;5.582;2024-02-23T10:57:36;7.30;99.90
71237;DHT22;58984;51.960;5.582;2024-02-23T11:00:02;7.20;99.90
71237;DHT22;58984;51.960;5.582;2024-02-23T11:02:46;7.30;99.90
71237;DHT22;58984;51.960;5.582;2024-02-23T11:05:15;7.30;99.90
71237;DHT22;58984;51.960;5.582;2024-02-23T11:07:41;7.30;99.90
71237;DHT22;58984;51.960;5.582;2024-02-23T11:10:07;7.30;99.90
71237;DHT22;58984;51.960;5.582;2024-02-23T11:12:35;7.30;99.90
71237;DHT22;58984;51.960;5.582;2024-02-23T11:15:01;7.30;99.90
71237;DHT22;58984;51.960;5.582;2024-02-23T11:17:31;7.30;99.90
71237;DHT22;58984;51.960;5.582;2024-02-23T11:19:58;7.30;99.90
71237;DHT22;58984;51.960;5.582;2024-02-23T11:22:25;7.30;99.90
71237;DHT22;58984;51.960;5.582;2024-02-23T11:24:51;7.30;99.90
71237;DHT22;58984;51.960;5.582;2024-02-23T11:27:17;7.30;99.90
71237;DHT22;58984;51.960;5.582;2024-02-23T11:29:45;7.40;99.90
71237;DHT22;58984;51.960;5.582;2024-02-23T11:32:15;7.40;99.90
71237;DHT22;58984;51.960;5.582;2024-02-23T11:34:41;7.30;99.90
71237;DHT22;58984;51.960;5.582;2024-02-23T11:37:10;7.40;99.90
71237;DHT22;58984;51.960;5.582;2024-02-23T11:39:39;7.40;99.90
71237;DHT22;58984;51.960;5.582;2024-02-23T11:42:08;7.40;99.90
71237;DHT22;58984;51.960;5.582;2024-02-23T11:44:34;7.40;99.90
71237;DHT22;58984;51.960;5.582;2024-02-23T11:47:00;7.40;99.90
71237;DHT22;58984;51.960;5.582;2024-02-23T11:49:29;7.40;99.90
71237;DHT22;58984;51.960;5.582;2024-02-23T11:51:55;7.40;99.90
71237;DHT22;58984;51.960;5.582;2024-02-23T11:54:22;7.40;99.90
71237;DHT22;58984;51.960;5.582;2024-02-23T11:56:48;7.40;99.90
71237;DHT22;58984;51.960;5.582;2024-02-23T11:59:15;7.40;99.90
71237;DHT22;58984;51.960;5.582;2024-02-23T12:01:41;7.40;99.90
71237;DHT22;58984;51.960;5.582;2024-02-23T12:04:07;7.50;99.90
71237;DHT22;58984;51.960;5.582;2024-02-23T12:06:33;7.50;99.90
71237;DHT22;58984;51.960;5.582;2024-02-23T12:09:00;7.50;99.90
71237;DHT22;58984;51.960;5.582;2024-02-23T12:11:26;7.50;99.90
71237;DHT22;58984;51.960;5.582;2024-02-23T12:13:53;7.50;99.90
71237;DHT22;58984;51.960;5.582;2024-02-23T12:16:20;7.50;99.90
71237;DHT22;58984;51.960;5.582;2024-02-23T12:18:56;7.50;99.90
71237;DHT22;58984;51.960;5.582;2024-02-23T12:21:23;7.60;99.90
71237;DHT22;58984;51.960;5.582;2024-02-23T12:23:49;7.60;99.90
71237;DHT22;58984;51.960;5.582;2024-02-23T12:26:19;7.60;99.90
71237;DHT22;58984;51.960;5.582;2024-02-23T12:28:45;7.60;99.90
71237;DHT22;58984;51.960;5.582;2024-02-23T12:31:11;7.60;99.90
71237;DHT22;58984;51.960;5.582;2024-02-23T12:33:38;7.60;99.90
71237;DHT22;58984;51.960;5.582;2024-02-23T12:36:10;7.70;99.90
71237;DHT22;58984;51.960;5.582;2024-02-23T12:38:36;7.80;99.90
71237;DHT22;58984;51.960;5.582;2024-02-23T12:41:02;7.90;99.90
71237;DHT22;58984;51.960;5.582;2024-02-23T12:43:28;8.00;99.90
71237;DHT22;58984;51.960;5.582;2024-02-23T12:45:54;8.00;99.90
71237;DHT22;58984;51.960;5.582;2024-02-23T12:48:21;8.10;99.90
71237;DHT22;58984;51.960;5.582;2024-02-23T12:50:47;8.10;99.90
71237;DHT22;58984;51.960;5.582;2024-02-23T12:55:58;8.20;99.90
71237;DHT22;58984;51.960;5.582;2024-02-23T12:58:24;8.20;99.90
71237;DHT22;58984;51.960;5.582;2024-02-23T13:00:50;8.20;99.90
71237;DHT22;58984;51.960;5.582;2024-02-23T13:03:15;8.20;99.90
71237;DHT22;58984;51.960;5.582;2024-02-23T13:05:41;8.20;99.90
71237;DHT22;58984;51.960;5.582;2024-02-23T13:08:07;8.20;99.90
71237;DHT22;58984;51.960;5.582;2024-02-23T13:10:33;8.20;99.90
71237;DHT22;58984;51.960;5.582;2024-02-23T13:13:00;8.30;99.90
71237;DHT22;58984;51.960;5.582;2024-02-23T13:15:26;8.30;99.90
71237;DHT22;58984;51.960;5.582;2024-02-23T13:17:51;8.30;99.90
71237;DHT22;58984;51.960;5.582;2024-02-23T13:20:17;8.30;99.90
71237;DHT22;58984;51.960;5.582;2024-02-23T13:22:43;8.30;99.90
71237;DHT22;58984;51.960;5.582;2024-02-23T13:25:08;8.30;99.90
71237;DHT22;58984;51.960;5.582;2024-02-23T13:27:34;8.30;99.90
71237;DHT22;58984;51.960;5.582;2024-02-23T13:29:59;8.30;99.90
71237;DHT22;58984;51.960;5.582;2024-02-23T13:32:25;8.30;99.90
71237;DHT22;58984;51.960;5.582;2024-02-23T13:34:51;8.30;99.90
71237;DHT22;58984;51.960;5.582;2024-02-23T13:37:18;8.30;99.90
71237;DHT22;58984;51.960;5.582;2024-02-23T13:39:44;8.30;99.90
71237;DHT22;58984;51.960;5.582;2024-02-23T13:42:09;8.30;99.90
71237;DHT22;58984;51.960;5.582;2024-02-23T13:44:36;8.30;99.90
71237;DHT22;58984;51.960;5.582;2024-02-23T13:47:02;8.30;99.90
71237;DHT22;58984;51.960;5.582;2024-02-23T13:49:27;8.30;99.90
71237;DHT22;58984;51.960;5.582;2024-02-23T13:51:53;8.30;99.90
71237;DHT22;58984;51.960;5.582;2024-02-23T13:54:19;8.30;99.90
71237;DHT22;58984;51.960;5.582;2024-02-23T13:56:45;8.30;99.90
71237;DHT22;58984;51.960;5.582;2024-02-23T13:59:11;8.30;99.90
71237;DHT22;58984;51.960;5.582;2024-02-23T14:01:36;8.30;99.90
71237;DHT22;58984;51.960;5.582;2024-02-23T14:04:07;8.30;99.90
71237;DHT22;58984;51.960;5.582;2024-02-23T14:06:33;8.30;99.90
71237;DHT22;58984;51.960;5.582;2024-02-23T14:08:58;8.30;99.90
71237;DHT22;58984;51.960;5.582;2024-02-23T14:11:24;8.40;99.90
71237;DHT22;58984;51.960;5.582;2024-02-23T14:13:50;8.30;99.90
71237;DHT22;58984;51.960;5.582;2024-02-23T14:16:16;8.40;99.90
71237;DHT22;58984;51.960;5.582;2024-02-23T14:18:42;8.40;99.90
71237;DHT22;58984;51.960;5.582;2024-02-23T14:21:10;8.40;99.90
71237;DHT22;58984;51.960;5.582;2024-02-23T14:23:36;8.40;99.90
71237;DHT22;58984;51.960;5.582;2024-02-23T14:26:05;8.40;99.90
71237;DHT22;58984;51.960;5.582;2024-02-23T14:28:36;8.40;99.90
71237;DHT22;58984;51.960;5.582;2024-02-23T14:31:04;8.40;99.90
71237;DHT22;58984;51.960;5.582;2024-02-23T14:33:36;8.40;99.90
71237;DHT22;58984;51.960;5.582;2024-02-23T14:36:12;8.40;99.90
71237;DHT22;58984;51.960;5.582;2024-02-23T14:38:38;8.40;99.90
71237;DHT22;58984;51.960;5.582;2024-02-23T14:41:12;8.40;99.90
71237;DHT22;58984;51.960;5.582;2024-02-23T14:43:38;8.40;99.90
71237;DHT22;58984;51.960;5.582;2024-02-23T14:46:13;8.40;99.90
71237;DHT22;58984;51.960;5.582;2024-02-23T14:48:53;8.40;99.90
71237;DHT22;58984;51.960;5.582;2024-02-23T14:51:22;8.40;99.90
71237;DHT22;58984;51.960;5.582;2024-02-23T14:53:56;8.40;99.90
71237;DHT22;58984;51.960;5.582;2024-02-23T14:56:32;8.40;99.90
71237;DHT22;58984;51.960;5.582;2024-02-23T14:58:59;8.40;99.90
71237;DHT22;58984;51.960;5.582;2024-02-23T15:01:32;8.40;99.90
71237;DHT22;58984;51.960;5.582;2024-02-23T15:04:14;8.40;99.90
71237;DHT22;58984;51.960;5.582;2024-02-23T15:06:54;8.40;99.90
71237;DHT22;58984;51.960;5.582;2024-02-23T15:09:37;8.40;99.90
71237;DHT22;58984;51.960;5.582;2024-02-23T15:12:16;8.40;99.90
71237;DHT22;58984;51.960;5.582;2024-02-23T15:14:56;8.40;99.90
71237;DHT22;58984;51.960;5.582;2024-02-23T15:17:24;8.40;99.90
71237;DHT22;58984;51.960;5.582;2024-02-23T15:19:50;8.40;99.90
71237;DHT22;58984;51.960;5.582;2024-02-23T15:22:16;8.40;99.90
71237;DHT22;58984;51.960;5.582;2024-02-23T15:24:58;8.30;99.90
71237;DHT22;58984;51.960;5.582;2024-02-23T15:30:58;8.30;99.90
71237;DHT22;58984;51.960;5.582;2024-02-23T15:33:28;8.30;99.90
71237;DHT22;58984;51.960;5.582;2024-02-23T15:35:59;8.30;99.90
71237;DHT22;58984;51.960;5.582;2024-02-23T15:38:38;8.30;99.90
71237;DHT22;58984;51.960;5.582;2024-02-23T15:41:14;8.20;99.90
71237;DHT22;58984;51.960;5.582;2024-02-23T15:46:30;8.20;99.90
71237;DHT22;58984;51.960;5.582;2024-02-23T15:49:20;8.20;99.90
71237;DHT22;58984;51.960;5.582;2024-02-23T15:51:55;8.20;99.90